Time;durP1;ratioP1;P1;durP2;ratioP2;P2;SDS_P1;SDS_P2;PMS_P1;PMS_P2;Temp;Humidity;BMP_temperature;BMP_pressure;BME280_temperature;BME280_humidity;BME280_pressure;Samples;Min_cycle;Max_cycle;Signal;HPM_P1;HPM_P2
2022/03/06 00:00:47;;;;;;;7.95;3.30;;;3.00;99.90;;;;;;5031713;28;20071;-71
2022/03/06 00:03:13;;;;;;;4.68;3.10;;;3.00;99.90;;;;;;5033280;28;20026;-71
2022/03/06 00:05:39;;;;;;;6.63;2.90;;;3.00;99.90;;;;;;5032676;28;20037;-70
2022/03/06 00:08:06;;;;;;;7.07;2.80;;;3.00;99.90;;;;;;5037079;28;20026;-71
2022/03/06 00:10:32;;;;;;;7.15;3.08;;;3.00;99.90;;;;;;5038005;28;20040;-71
2022/03/06 00:12:58;;;;;;;7.28;2.90;;;3.00;99.90;;;;;;5033895;28;20029;-70
2022/03/06 00:15:26;;;;;;;6.85;2.70;;;3.00;99.90;;;;;;5035285;28;20065;-73
2022/03/06 00:17:53;;;;;;;5.63;2.28;;;3.00;99.90;;;;;;5031748;28;20029;-70
2022/03/06 00:20:19;;;;;;;7.35;2.92;;;3.00;99.90;;;;;;5029845;28;20525;-71
2022/03/06 00:22:45;;;;;;;4.72;2.42;;;3.00;99.90;;;;;;5034581;28;20029;-71
2022/03/06 00:25:11;;;;;;;5.93;2.85;;;3.00;99.90;;;;;;5030262;28;20029;-71
2022/03/06 00:27:37;;;;;;;5.78;2.95;;;3.00;99.90;;;;;;5035539;28;20490;-70
2022/03/06 00:30:04;;;;;;;8.40;3.40;;;3.00;99.90;;;;;;5032523;28;20079;-70
2022/03/06 00:32:30;;;;;;;8.60;3.35;;;3.10;99.90;;;;;;5030898;28;20028;-71
2022/03/06 00:34:56;;;;;;;9.10;3.40;;;3.10;99.90;;;;;;5032684;28;20037;-71
2022/03/06 00:37:22;;;;;;;6.13;3.08;;;3.10;99.90;;;;;;5030533;28;20029;-72
2022/03/06 00:39:47;;;;;;;7.03;3.88;;;3.00;99.90;;;;;;5034829;28;20420;-72
2022/03/06 00:42:13;;;;;;;4.60;2.63;;;3.00;99.90;;;;;;5010790;28;20519;-70
2022/03/06 00:44:38;;;;;;;5.50;3.08;;;3.00;99.90;;;;;;5035062;28;20091;-71
2022/03/06 00:47:04;;;;;;;7.20;3.40;;;3.00;99.90;;;;;;5035134;28;20029;-72
2022/03/06 00:49:31;;;;;;;6.28;3.28;;;3.00;99.90;;;;;;5028661;28;20045;-71
2022/03/06 00:51:57;;;;;;;5.43;3.05;;;3.00;99.90;;;;;;5032222;28;20034;-70
2022/03/06 00:54:23;;;;;;;6.28;3.28;;;3.00;99.90;;;;;;5032283;28;20025;-70
2022/03/06 00:56:49;;;;;;;7.43;3.85;;;2.90;99.90;;;;;;5028969;28;20479;-70
2022/03/06 00:59:15;;;;;;;7.70;3.70;;;2.90;99.90;;;;;;5031668;28;20024;-71
2022/03/06 01:01:40;;;;;;;7.10;3.80;;;2.80;99.90;;;;;;5028084;28;20020;-73
2022/03/06 01:04:06;;;;;;;8.63;3.90;;;2.80;99.90;;;;;;5034255;28;20030;-70
2022/03/06 01:06:32;;;;;;;7.75;4.40;;;2.80;99.90;;;;;;5033637;28;20025;-70
2022/03/06 01:08:58;;;;;;;9.07;4.78;;;2.70;99.90;;;;;;5032534;28;20491;-70
2022/03/06 01:11:24;;;;;;;8.38;3.78;;;2.70;99.90;;;;;;5032583;28;20120;-71
2022/03/06 01:13:51;;;;;;;6.18;3.83;;;2.70;99.90;;;;;;5037909;28;20053;-71
2022/03/06 01:16:16;;;;;;;6.60;3.33;;;2.70;99.90;;;;;;5030652;28;20033;-71
2022/03/06 01:18:42;;;;;;;12.27;4.88;;;2.60;99.90;;;;;;5032778;28;20035;-71
2022/03/06 01:21:08;;;;;;;6.20;3.67;;;2.60;99.90;;;;;;5036661;28;20025;-70
2022/03/06 01:23:35;;;;;;;6.72;4.05;;;2.60;99.90;;;;;;5033169;28;20021;-70
2022/03/06 01:26:02;;;;;;;6.70;3.85;;;2.60;99.90;;;;;;5030564;28;20030;-70
2022/03/06 01:28:28;;;;;;;6.70;3.65;;;2.60;99.90;;;;;;5035800;28;20028;-71
2022/03/06 01:30:54;;;;;;;5.90;3.60;;;2.60;99.90;;;;;;5037237;28;20029;-74
2022/03/06 01:33:20;;;;;;;5.78;3.80;;;2.60;99.90;;;;;;5032295;28;20503;-70
2022/03/06 01:35:45;;;;;;;9.20;3.58;;;2.60;99.90;;;;;;5032390;28;20035;-72
2022/03/06 01:38:12;;;;;;;6.18;3.55;;;2.50;99.90;;;;;;5032795;28;20498;-70
2022/03/06 01:40:38;;;;;;;7.70;4.25;;;2.60;99.90;;;;;;5030108;28;20026;-73
2022/03/06 01:43:05;;;;;;;9.90;4.28;;;2.50;99.90;;;;;;5018752;28;20037;-70
2022/03/06 01:45:30;;;;;;;8.48;3.80;;;2.50;99.90;;;;;;5035092;28;22717;-71
2022/03/06 01:47:58;;;;;;;5.75;3.70;;;2.50;99.90;;;;;;5034823;28;20032;-71
2022/03/06 01:50:28;;;;;;;7.20;4.13;;;2.50;99.90;;;;;;5034719;28;20068;-71
2022/03/06 01:52:55;;;;;;;7.20;3.90;;;2.50;99.90;;;;;;5029867;28;20025;-69
2022/03/06 01:55:24;;;;;;;6.97;3.50;;;2.50;99.90;;;;;;5036588;28;20036;-72
2022/03/06 01:57:51;;;;;;;5.43;3.75;;;2.50;99.90;;;;;;5033048;28;20032;-71
2022/03/06 02:00:20;;;;;;;8.05;3.47;;;2.50;99.90;;;;;;5033221;28;20025;-72
2022/03/06 02:02:46;;;;;;;7.38;3.90;;;2.50;99.90;;;;;;5046485;28;20433;-70
2022/03/06 02:05:12;;;;;;;5.88;3.45;;;2.50;99.90;;;;;;5031857;28;20033;-70
2022/03/06 02:07:37;;;;;;;7.47;3.60;;;2.50;99.90;;;;;;5031520;28;20029;-71
2022/03/06 02:10:05;;;;;;;9.90;3.95;;;2.50;99.90;;;;;;5029999;28;20072;-71
2022/03/06 02:12:32;;;;;;;5.47;3.70;;;2.50;99.90;;;;;;5029248;28;20056;-70
2022/03/06 02:14:59;;;;;;;4.72;3.53;;;2.40;99.90;;;;;;5030127;28;20029;-70
2022/03/06 02:17:26;;;;;;;7.57;3.70;;;2.40;99.90;;;;;;5032406;28;20060;-69
2022/03/06 02:19:53;;;;;;;6.15;3.50;;;2.40;99.90;;;;;;5028952;28;20040;-70
2022/03/06 02:22:20;;;;;;;7.15;3.28;;;2.40;99.90;;;;;;5030924;28;20433;-70
2022/03/06 02:24:46;;;;;;;7.00;3.08;;;2.30;99.90;;;;;;5031547;28;20017;-70
2022/03/06 02:27:11;;;;;;;5.00;3.15;;;2.40;99.90;;;;;;5032047;28;20033;-69
2022/03/06 02:29:41;;;;;;;7.80;2.97;;;2.30;99.90;;;;;;5029319;28;20037;-69
2022/03/06 02:32:12;;;;;;;5.35;3.00;;;2.30;99.90;;;;;;5030569;28;20124;-69
2022/03/06 02:34:39;;;;;;;5.20;2.70;;;2.30;99.90;;;;;;5029264;28;20033;-70
2022/03/06 02:37:06;;;;;;;5.97;3.38;;;2.30;99.90;;;;;;5045446;28;20214;-73
2022/03/06 02:39:31;;;;;;;5.05;3.03;;;2.30;99.90;;;;;;5035592;28;20060;-70
2022/03/06 02:41:57;;;;;;;6.93;2.72;;;2.30;99.90;;;;;;5030031;28;20471;-72
2022/03/06 02:44:24;;;;;;;4.63;2.70;;;2.30;99.90;;;;;;5032307;28;20064;-70
2022/03/06 02:46:51;;;;;;;4.20;2.40;;;2.30;99.90;;;;;;5032568;28;20029;-70
2022/03/06 02:49:19;;;;;;;7.55;2.47;;;2.30;99.90;;;;;;5027893;28;20127;-70
2022/03/06 02:51:45;;;;;;;5.50;2.83;;;2.30;99.90;;;;;;5035844;28;20032;-70
2022/03/06 02:54:12;;;;;;;6.97;3.05;;;2.30;99.90;;;;;;5028659;28;20032;-70
2022/03/06 02:56:37;;;;;;;5.63;2.60;;;2.30;99.90;;;;;;5029519;28;20033;-70
2022/03/06 02:59:07;;;;;;;6.88;2.78;;;2.30;99.90;;;;;;5023283;28;20022;-69
2022/03/06 03:01:40;;;;;;;5.65;3.35;;;2.30;99.90;;;;;;5030335;28;20018;-69
2022/03/06 03:04:07;;;;;;;4.20;2.58;;;2.40;99.90;;;;;;5030874;28;20771;-70
2022/03/06 03:06:32;;;;;;;4.60;2.60;;;2.40;99.90;;;;;;5032734;28;20034;-70
2022/03/06 03:08:58;;;;;;;4.57;2.78;;;2.40;99.90;;;;;;5026842;28;20431;-71
2022/03/06 03:11:24;;;;;;;6.80;3.05;;;2.40;99.90;;;;;;5031412;28;20449;-70
2022/03/06 03:13:50;;;;;;;3.83;2.42;;;2.40;99.90;;;;;;5030922;28;20101;-69
2022/03/06 03:16:16;;;;;;;4.18;2.58;;;2.40;99.90;;;;;;5030247;28;20033;-70
2022/03/06 03:18:41;;;;;;;6.60;2.80;;;2.40;99.90;;;;;;5030213;28;20029;-70
2022/03/06 03:21:07;;;;;;;5.00;2.55;;;2.40;99.90;;;;;;5031638;28;20049;-70
2022/03/06 03:23:33;;;;;;;4.90;2.70;;;2.40;99.90;;;;;;5028840;28;20017;-70
2022/03/06 03:25:58;;;;;;;5.38;2.58;;;2.40;99.90;;;;;;5027480;28;20033;-70
2022/03/06 03:28:24;;;;;;;4.38;2.42;;;2.40;99.90;;;;;;5029121;28;20040;-71
2022/03/06 03:30:50;;;;;;;5.03;3.13;;;2.40;99.90;;;;;;5037427;28;20167;-70
2022/03/06 03:33:16;;;;;;;6.13;3.10;;;2.40;99.90;;;;;;5033674;28;20025;-70
2022/03/06 03:35:41;;;;;;;6.57;2.83;;;2.40;99.90;;;;;;5033939;28;20025;-70
2022/03/06 03:38:08;;;;;;;4.72;2.50;;;2.40;99.90;;;;;;5032935;28;20026;-71
2022/03/06 03:40:34;;;;;;;5.88;3.13;;;2.40;99.90;;;;;;5036606;28;20025;-71
2022/03/06 03:42:59;;;;;;;4.28;2.20;;;2.40;99.90;;;;;;5032875;28;20037;-70
2022/03/06 03:45:25;;;;;;;3.65;2.22;;;2.40;99.90;;;;;;5033597;28;20514;-70
2022/03/06 03:47:51;;;;;;;5.45;2.70;;;2.40;99.90;;;;;;5032403;28;20036;-70
2022/03/06 03:50:17;;;;;;;5.05;2.90;;;2.40;99.90;;;;;;5032101;28;20025;-70
2022/03/06 03:52:42;;;;;;;4.93;2.42;;;2.30;99.90;;;;;;5032575;28;20017;-70
2022/03/06 03:55:08;;;;;;;4.75;3.03;;;2.30;99.90;;;;;;5031342;28;20033;-71
2022/03/06 03:57:34;;;;;;;6.97;3.20;;;2.30;99.90;;;;;;5030963;28;20029;-69
2022/03/06 04:00:00;;;;;;;5.18;2.75;;;2.30;99.90;;;;;;5033218;28;20026;-70
2022/03/06 04:02:26;;;;;;;4.55;2.63;;;2.30;99.90;;;;;;5030919;28;20317;-70
2022/03/06 04:04:53;;;;;;;6.50;2.50;;;2.20;99.90;;;;;;5033872;28;20056;-70
2022/03/06 04:07:19;;;;;;;5.50;2.47;;;2.20;99.90;;;;;;5030725;28;20029;-70
2022/03/06 04:09:44;;;;;;;5.85;2.60;;;2.20;99.90;;;;;;5047455;28;20600;-71
2022/03/06 04:12:10;;;;;;;2.88;1.90;;;2.20;99.90;;;;;;5041647;28;20043;-71
2022/03/06 04:14:35;;;;;;;4.80;2.10;;;2.20;99.90;;;;;;5030322;28;20036;-70
2022/03/06 04:17:01;;;;;;;5.80;2.30;;;2.20;99.90;;;;;;5028831;28;20041;-71
2022/03/06 04:19:27;;;;;;;6.68;2.03;;;2.20;99.90;;;;;;5031894;28;20121;-71
2022/03/06 04:21:53;;;;;;;6.88;2.50;;;2.20;99.90;;;;;;5029219;28;20022;-71
2022/03/06 04:24:18;;;;;;;4.35;2.35;;;2.20;99.90;;;;;;5032330;28;20021;-70
2022/03/06 04:26:44;;;;;;;5.53;2.22;;;2.20;99.90;;;;;;5030714;28;20021;-70
2022/03/06 04:29:10;;;;;;;4.28;2.55;;;2.20;99.90;;;;;;5032161;28;20446;-71
2022/03/06 04:31:36;;;;;;;3.75;1.75;;;2.20;99.90;;;;;;5031028;28;20033;-70
2022/03/06 04:34:02;;;;;;;3.08;1.63;;;2.20;99.90;;;;;;5029654;28;20041;-70
2022/03/06 04:36:28;;;;;;;3.90;1.63;;;2.20;99.90;;;;;;5031582;28;20032;-70
2022/03/06 04:38:55;;;;;;;3.08;1.83;;;2.20;99.90;;;;;;5031147;28;20025;-70
2022/03/06 04:41:21;;;;;;;3.33;1.65;;;2.20;99.90;;;;;;5011334;28;20364;-70
2022/03/06 04:43:46;;;;;;;3.17;1.67;;;2.20;99.90;;;;;;5029597;28;20049;-69
2022/03/06 04:46:12;;;;;;;5.57;1.88;;;2.10;99.90;;;;;;5030057;28;20079;-71
2022/03/06 04:48:38;;;;;;;4.63;2.05;;;2.20;99.90;;;;;;5029632;28;20121;-70
2022/03/06 04:51:04;;;;;;;4.32;2.10;;;2.20;99.90;;;;;;5027847;28;20033;-70
2022/03/06 04:53:31;;;;;;;4.30;1.95;;;2.20;99.90;;;;;;5030128;28;20468;-70
2022/03/06 04:55:56;;;;;;;6.55;2.05;;;2.20;99.90;;;;;;5029169;28;20468;-71
2022/03/06 04:58:22;;;;;;;3.28;2.13;;;2.10;99.90;;;;;;5029459;28;20112;-70
2022/03/06 05:00:53;;;;;;;6.88;2.30;;;2.10;99.90;;;;;;5029702;28;20032;-70
2022/03/06 05:03:19;;;;;;;3.47;1.77;;;2.20;99.90;;;;;;5017502;28;20726;-70
2022/03/06 05:05:44;;;;;;;2.72;1.50;;;2.10;99.90;;;;;;5039712;28;20021;-70
2022/03/06 05:08:10;;;;;;;5.50;1.85;;;2.10;99.90;;;;;;5032661;28;20539;-70
2022/03/06 05:10:36;;;;;;;3.85;2.28;;;2.10;99.90;;;;;;5030069;28;20022;-71
2022/03/06 05:13:02;;;;;;;4.03;1.83;;;2.20;99.90;;;;;;5029269;28;20079;-71
2022/03/06 05:15:28;;;;;;;3.78;1.98;;;2.10;99.90;;;;;;5031935;28;20038;-72
2022/03/06 05:17:53;;;;;;;4.75;1.80;;;2.10;99.90;;;;;;5029157;28;20032;-72
2022/03/06 05:20:19;;;;;;;3.63;2.33;;;2.10;99.90;;;;;;5031069;28;20025;-71
2022/03/06 05:22:45;;;;;;;3.92;1.90;;;2.10;99.90;;;;;;5028841;28;20063;-71
2022/03/06 05:25:11;;;;;;;5.43;2.00;;;2.10;99.90;;;;;;5028223;28;20108;-71
2022/03/06 05:27:38;;;;;;;5.00;1.88;;;2.10;99.90;;;;;;5027552;28;20108;-71
2022/03/06 05:30:06;;;;;;;4.97;2.30;;;2.10;99.90;;;;;;5030481;28;20033;-71
2022/03/06 05:32:32;;;;;;;4.18;1.90;;;2.10;99.90;;;;;;5028752;28;20029;-71
2022/03/06 05:34:58;;;;;;;3.50;2.00;;;2.10;99.90;;;;;;5028175;28;20037;-71
2022/03/06 05:37:24;;;;;;;3.63;2.10;;;2.10;99.90;;;;;;5027247;28;20032;-71
2022/03/06 05:39:49;;;;;;;5.20;2.35;;;2.10;99.90;;;;;;5029929;28;20079;-71
2022/03/06 05:42:16;;;;;;;3.10;1.88;;;2.10;99.90;;;;;;5029008;28;20648;-71
2022/03/06 05:44:42;;;;;;;3.92;2.00;;;2.10;99.90;;;;;;5029475;28;20067;-71
2022/03/06 05:47:08;;;;;;;3.78;2.20;;;2.10;99.90;;;;;;5026860;28;20029;-71
2022/03/06 05:49:34;;;;;;;3.60;2.00;;;2.10;99.90;;;;;;5031646;28;20029;-71
2022/03/06 05:52:00;;;;;;;4.07;2.45;;;2.00;99.90;;;;;;5027914;28;20037;-71
2022/03/06 05:54:26;;;;;;;3.83;1.90;;;2.00;99.90;;;;;;5030991;28;20032;-71
2022/03/06 05:56:52;;;;;;;5.60;2.50;;;2.00;99.90;;;;;;5025687;28;20493;-70
2022/03/06 05:59:18;;;;;;;4.63;3.10;;;2.00;99.90;;;;;;5027548;28;20048;-71
2022/03/06 06:01:44;;;;;;;5.82;2.38;;;2.00;99.90;;;;;;5028465;28;20049;-71
2022/03/06 06:04:09;;;;;;;6.30;2.05;;;2.00;99.90;;;;;;5029656;28;20034;-72
2022/03/06 06:06:35;;;;;;;4.57;2.22;;;2.00;99.90;;;;;;5024842;28;20028;-71
2022/03/06 06:09:01;;;;;;;5.10;2.20;;;1.90;99.90;;;;;;5027831;28;20038;-71
2022/03/06 06:11:26;;;;;;;5.50;2.40;;;2.00;99.90;;;;;;5045700;28;20037;-71
2022/03/06 06:13:52;;;;;;;5.07;2.30;;;1.90;99.90;;;;;;5028537;28;20029;-71
2022/03/06 06:16:18;;;;;;;4.97;2.65;;;2.00;99.90;;;;;;5028061;28;20061;-71
2022/03/06 06:18:44;;;;;;;5.40;2.40;;;2.00;99.90;;;;;;5012419;28;20407;-71
2022/03/06 06:21:11;;;;;;;4.40;2.00;;;2.00;99.90;;;;;;5029760;28;20022;-71
2022/03/06 06:23:37;;;;;;;4.18;2.22;;;2.00;99.90;;;;;;5029932;28;20030;-70
2022/03/06 06:26:03;;;;;;;6.22;2.30;;;2.00;99.90;;;;;;5028853;28;20068;-71
2022/03/06 06:28:28;;;;;;;5.07;2.63;;;2.00;99.90;;;;;;5028178;28;20119;-71
2022/03/06 06:30:54;;;;;;;5.55;2.25;;;2.00;99.90;;;;;;5026584;28;20149;-70
2022/03/06 06:33:19;;;;;;;5.10;2.58;;;2.10;99.90;;;;;;5029713;28;20029;-70
2022/03/06 06:35:45;;;;;;;4.15;2.10;;;2.00;99.90;;;;;;5029221;28;20039;-71
2022/03/06 06:38:11;;;;;;;5.03;2.33;;;2.00;99.90;;;;;;5028241;28;20025;-71
2022/03/06 06:40:37;;;;;;;5.18;2.08;;;2.00;99.90;;;;;;5031963;28;20041;-71
2022/03/06 06:43:02;;;;;;;4.15;2.40;;;2.00;99.90;;;;;;5034988;28;20029;-71
2022/03/06 06:45:28;;;;;;;2.75;1.98;;;2.00;99.90;;;;;;5027698;28;20030;-71
2022/03/06 06:47:54;;;;;;;6.30;2.42;;;2.00;99.90;;;;;;5026991;28;20080;-69
2022/03/06 06:50:19;;;;;;;5.05;2.50;;;2.00;99.90;;;;;;5028742;28;20468;-69
2022/03/06 06:52:45;;;;;;;3.67;2.28;;;2.00;99.90;;;;;;5027622;28;20495;-69
2022/03/06 06:55:11;;;;;;;4.47;2.78;;;2.10;99.80;;;;;;5027417;28;20483;-69
2022/03/06 06:57:36;;;;;;;3.47;2.10;;;2.00;99.50;;;;;;5025832;28;20376;-71
2022/03/06 07:00:03;;;;;;;4.70;2.88;;;2.00;99.70;;;;;;5026573;28;20134;-69
2022/03/06 07:02:29;;;;;;;5.18;2.42;;;2.10;99.70;;;;;;5025920;28;20430;-71
2022/03/06 07:04:55;;;;;;;4.53;2.10;;;2.10;99.80;;;;;;5009094;28;20072;-70
2022/03/06 07:07:20;;;;;;;4.80;2.30;;;2.20;99.60;;;;;;5024939;28;20060;-69
2022/03/06 07:09:46;;;;;;;5.55;2.58;;;2.20;98.90;;;;;;5024146;28;20056;-70
2022/03/06 07:12:12;;;;;;;4.95;2.35;;;2.20;98.50;;;;;;5029138;28;20502;-69
2022/03/06 07:14:37;;;;;;;2.83;2.00;;;2.20;98.50;;;;;;5026151;28;20040;-69
2022/03/06 07:17:03;;;;;;;3.80;2.38;;;2.30;98.30;;;;;;5026770;28;20057;-69
2022/03/06 07:19:30;;;;;;;4.95;2.30;;;2.30;98.40;;;;;;5030927;28;20045;-70
2022/03/06 07:21:56;;;;;;;4.53;2.50;;;2.30;98.20;;;;;;5027775;28;20036;-71
2022/03/06 07:24:22;;;;;;;4.45;2.40;;;2.30;98.00;;;;;;5027594;28;20387;-69
2022/03/06 07:26:50;;;;;;;5.15;2.45;;;2.40;98.00;;;;;;5028516;28;20022;-70
2022/03/06 07:29:16;;;;;;;3.67;2.45;;;2.40;97.60;;;;;;5028696;28;20403;-71
2022/03/06 07:31:42;;;;;;;4.88;2.58;;;2.40;97.80;;;;;;5026173;28;20029;-71
2022/03/06 07:34:07;;;;;;;3.33;2.30;;;2.50;97.50;;;;;;5026730;28;20526;-70
2022/03/06 07:36:33;;;;;;;4.70;2.25;;;2.50;96.60;;;;;;5027575;28;20038;-71
2022/03/06 07:38:59;;;;;;;2.97;2.05;;;2.50;96.20;;;;;;5023549;28;20045;-71
2022/03/06 07:41:24;;;;;;;4.63;2.22;;;2.50;95.70;;;;;;5022549;28;20023;-69
2022/03/06 07:43:51;;;;;;;6.43;2.25;;;2.50;95.70;;;;;;5021196;28;20406;-70
2022/03/06 07:46:17;;;;;;;3.53;2.28;;;2.50;94.90;;;;;;5017723;28;20108;-70
2022/03/06 07:48:42;;;;;;;3.25;1.95;;;2.50;93.90;;;;;;5018724;28;20704;-70
2022/03/06 07:51:08;;;;;;;3.28;1.98;;;2.60;93.90;;;;;;5016658;28;20931;-70
2022/03/06 07:53:33;;;;;;;4.97;2.20;;;2.60;93.40;;;;;;5017352;28;20036;-70
2022/03/06 07:55:59;;;;;;;5.10;2.25;;;2.70;93.70;;;;;;5019561;28;20048;-70
2022/03/06 07:58:25;;;;;;;5.10;2.03;;;2.70;93.40;;;;;;5016638;28;20560;-69
2022/03/06 08:00:51;;;;;;;3.13;2.20;;;2.80;93.00;;;;;;5017528;28;20498;-70
2022/03/06 08:03:18;;;;;;;4.60;2.58;;;2.90;92.00;;;;;;5012354;28;20037;-69
2022/03/06 08:05:45;;;;;;;6.75;2.15;;;2.90;90.00;;;;;;5016777;28;20162;-68
2022/03/06 08:08:11;;;;;;;5.35;2.08;;;2.90;88.90;;;;;;5018249;28;20032;-68
2022/03/06 08:10:37;;;;;;;4.97;1.70;;;2.90;88.50;;;;;;5022686;28;20053;-69
2022/03/06 08:13:02;;;;;;;2.90;2.45;;;2.90;88.00;;;;;;5017496;28;20121;-69
2022/03/06 08:15:28;;;;;;;3.75;2.35;;;3.00;86.70;;;;;;5025805;28;20043;-70
2022/03/06 08:17:54;;;;;;;4.68;2.13;;;3.00;86.10;;;;;;5035570;28;20029;-70
2022/03/06 08:20:19;;;;;;;4.85;2.42;;;3.00;85.90;;;;;;5027665;28;20033;-71
2022/03/06 08:22:45;;;;;;;9.25;2.38;;;2.90;85.50;;;;;;5026721;28;20068;-71
2022/03/06 08:25:12;;;;;;;3.47;2.00;;;2.80;85.60;;;;;;5029943;28;20022;-71
2022/03/06 08:27:38;;;;;;;4.15;2.03;;;2.80;85.90;;;;;;5030540;28;20094;-70
2022/03/06 08:30:05;;;;;;;3.05;1.85;;;2.80;86.40;;;;;;5026704;28;20372;-70
2022/03/06 08:32:31;;;;;;;5.53;1.80;;;2.70;85.60;;;;;;5027178;28;20029;-71
2022/03/06 08:34:58;;;;;;;4.55;1.90;;;2.80;84.90;;;;;;5027684;28;20045;-71
2022/03/06 08:37:24;;;;;;;2.88;1.60;;;2.80;82.80;;;;;;5028889;28;20034;-73
2022/03/06 08:39:50;;;;;;;2.97;2.00;;;2.80;82.80;;;;;;5004284;28;20029;-71
2022/03/06 08:42:19;;;;;;;3.13;1.48;;;2.80;81.60;;;;;;5029501;28;20034;-70
2022/03/06 08:44:44;;;;;;;2.05;1.30;;;2.90;81.10;;;;;;5028005;28;20395;-71
2022/03/06 08:47:10;;;;;;;3.30;1.30;;;2.90;79.70;;;;;;5028151;28;20030;-74
2022/03/06 08:49:36;;;;;;;2.92;1.40;;;2.90;79.30;;;;;;5026028;28;20025;-70
2022/03/06 08:52:02;;;;;;;4.13;1.33;;;2.90;79.60;;;;;;5026930;28;20033;-70
2022/03/06 08:54:28;;;;;;;2.90;1.13;;;3.00;78.50;;;;;;5027613;28;20026;-75
2022/03/06 08:56:55;;;;;;;2.00;0.95;;;3.00;75.90;;;;;;5027990;28;20032;-71
2022/03/06 08:59:21;;;;;;;4.28;1.05;;;3.00;76.20;;;;;;5025026;28;20391;-70
2022/03/06 09:01:47;;;;;;;2.83;1.20;;;3.00;76.50;;;;;;5021517;28;20067;-71
2022/03/06 09:04:14;;;;;;;2.72;1.45;;;3.10;76.50;;;;;;5026384;28;20028;-71
2022/03/06 09:06:41;;;;;;;2.17;1.52;;;3.10;76.50;;;;;;5024957;28;20069;-71
2022/03/06 09:09:08;;;;;;;2.67;1.33;;;3.20;75.10;;;;;;5009372;28;20092;-71
2022/03/06 09:11:34;;;;;;;2.65;1.40;;;3.20;75.30;;;;;;5019158;28;20030;-71
2022/03/06 09:14:00;;;;;;;2.00;1.45;;;3.20;74.60;;;;;;5034405;28;20499;-72
2022/03/06 09:16:27;;;;;;;4.15;1.35;;;3.20;74.70;;;;;;5022276;28;20033;-71
2022/03/06 09:18:53;;;;;;;3.08;1.33;;;3.30;75.20;;;;;;5023422;28;20507;-70
2022/03/06 09:21:19;;;;;;;5.30;2.08;;;3.30;75.10;;;;;;5025723;28;20040;-70
2022/03/06 09:23:45;;;;;;;3.13;1.70;;;3.40;75.50;;;;;;5026176;28;20207;-70
2022/03/06 09:26:10;;;;;;;3.20;1.52;;;3.40;74.40;;;;;;5026530;28;20037;-69
2022/03/06 09:28:37;;;;;;;2.70;1.50;;;3.40;73.60;;;;;;5026912;28;20029;-73
2022/03/06 09:31:03;;;;;;;2.75;1.58;;;3.40;73.50;;;;;;5025209;28;20403;-70
2022/03/06 09:33:28;;;;;;;2.60;1.50;;;3.50;72.70;;;;;;5026897;28;20029;-70
2022/03/06 09:35:55;;;;;;;2.28;1.42;;;3.40;72.20;;;;;;5026733;28;20102;-70
2022/03/06 09:38:20;;;;;;;3.75;1.92;;;3.50;72.40;;;;;;5023785;28;20083;-70
2022/03/06 09:40:46;;;;;;;1.95;1.45;;;3.40;72.60;;;;;;5027490;28;20030;-70
2022/03/06 09:43:17;;;;;;;4.88;1.70;;;3.50;72.10;;;;;;5024559;28;20017;-70
2022/03/06 09:45:47;;;;;;;3.40;1.75;;;3.50;71.60;;;;;;5025770;28;20021;-70
2022/03/06 09:48:16;;;;;;;5.45;1.70;;;3.50;71.80;;;;;;5024500;28;20035;-71
2022/03/06 09:50:45;;;;;;;2.60;1.58;;;3.60;72.20;;;;;;5025534;28;20053;-71
2022/03/06 09:53:10;;;;;;;2.78;1.80;;;3.80;71.90;;;;;;5023871;28;20021;-71
2022/03/06 09:55:37;;;;;;;4.20;2.10;;;3.90;71.80;;;;;;5006099;28;20573;-71
2022/03/06 09:58:02;;;;;;;4.88;2.00;;;4.10;70.30;;;;;;5024154;28;20047;-71
2022/03/06 10:00:28;;;;;;;2.78;1.80;;;4.20;70.70;;;;;;5019357;28;20490;-71
2022/03/06 10:02:55;;;;;;;3.13;2.00;;;4.40;71.00;;;;;;5019382;28;20034;-71
2022/03/06 10:05:37;;;;;;;5.53;2.10;;;4.60;68.50;;;;;;5016609;28;20427;-71
2022/03/06 10:08:21;;;;;;;3.28;2.05;;;4.90;68.50;;;;;;5019366;28;20039;-71
2022/03/06 10:10:49;;;;;;;8.25;2.40;;;5.10;67.00;;;;;;5016058;28;20084;-70
2022/03/06 10:13:23;;;;;;;4.05;2.17;;;5.10;67.00;;;;;;5013717;28;20467;-71
2022/03/06 10:16:19;;;;;;;4.65;2.05;;;5.20;65.00;;;;;;5019958;28;20729;-72
2022/03/06 10:18:55;;;;;;;3.28;2.05;;;5.20;64.40;;;;;;5015608;28;20037;-71
2022/03/06 10:21:29;;;;;;;3.08;2.03;;;5.10;65.20;;;;;;5016745;28;20575;-71
2022/03/06 10:23:56;;;;;;;4.10;1.98;;;5.10;66.60;;;;;;5019862;28;20048;-71
2022/03/06 10:26:30;;;;;;;6.03;2.65;;;5.30;65.90;;;;;;5017562;28;20482;-71
2022/03/06 10:28:59;;;;;;;5.10;2.10;;;5.60;64.70;;;;;;5015676;28;20490;-71
2022/03/06 10:31:28;;;;;;;5.45;1.80;;;6.10;64.00;;;;;;5016106;28;20508;-71
2022/03/06 10:34:03;;;;;;;2.75;1.50;;;6.50;62.60;;;;;;5016343;28;20580;-69
2022/03/06 10:36:46;;;;;;;2.95;1.55;;;7.20;60.50;;;;;;5011239;28;20077;-69
2022/03/06 10:39:20;;;;;;;2.85;1.63;;;7.90;58.10;;;;;;5014369;28;20088;-69
2022/03/06 10:41:53;;;;;;;6.20;2.08;;;8.90;55.00;;;;;;5016712;28;20030;-68
2022/03/06 10:44:21;;;;;;;3.75;1.90;;;9.80;52.40;;;;;;5019048;28;20109;-70
2022/03/06 10:47:02;;;;;;;3.30;2.00;;;10.10;50.30;;;;;;5024309;28;20530;-71
2022/03/06 10:49:30;;;;;;;3.10;2.03;;;9.90;49.90;;;;;;5027369;28;20490;-68
2022/03/06 10:51:55;;;;;;;4.07;2.28;;;9.40;51.00;;;;;;5025261;28;20026;-68
2022/03/06 10:54:21;;;;;;;2.97;1.70;;;9.20;52.50;;;;;;5022931;28;20038;-68
2022/03/06 10:56:51;;;;;;;5.03;2.15;;;9.30;52.60;;;;;;5024610;28;20037;-79
2022/03/06 10:59:24;;;;;;;3.67;2.15;;;9.50;52.50;;;;;;5032356;28;20056;-77
2022/03/06 11:01:53;;;;;;;2.75;1.80;;;9.60;53.60;;;;;;5026564;28;20452;-71
2022/03/06 11:04:19;;;;;;;5.35;2.05;;;9.70;53.30;;;;;;5036974;28;20030;-71
2022/03/06 11:06:47;;;;;;;4.57;2.00;;;9.70;50.70;;;;;;5036677;28;20479;-71
2022/03/06 11:09:16;;;;;;;3.95;1.70;;;9.50;51.40;;;;;;5027686;28;20459;-71
2022/03/06 11:11:44;;;;;;;4.22;1.90;;;9.40;50.60;;;;;;5024123;28;20041;-71
2022/03/06 11:14:12;;;;;;;3.58;1.92;;;9.30;51.30;;;;;;5029021;28;20033;-72
2022/03/06 11:16:39;;;;;;;2.45;1.63;;;9.50;50.70;;;;;;5006687;28;20495;-71
2022/03/06 11:19:06;;;;;;;3.15;1.80;;;10.20;51.20;;;;;;5029450;28;20025;-71
2022/03/06 11:21:38;;;;;;;3.22;1.55;;;11.70;47.80;;;;;;5012769;28;20540;-71
2022/03/06 11:24:26;;;;;;;5.38;1.73;;;12.50;46.50;;;;;;5026613;28;20034;-71
2022/03/06 11:27:09;;;;;;;4.28;1.90;;;14.30;42.10;;;;;;5023902;28;20026;-71
2022/03/06 11:30:02;;;;;;;2.83;1.90;;;14.00;40.90;;;;;;5027284;28;20041;-71
2022/03/06 11:32:30;;;;;;;2.35;1.83;;;13.30;42.90;;;;;;5026088;28;20085;-72
2022/03/06 11:35:24;;;;;;;3.75;2.08;;;14.00;44.70;;;;;;5024406;28;20569;-72
2022/03/06 11:37:51;;;;;;;3.30;1.85;;;15.00;40.80;;;;;;5026477;28;20490;-71
2022/03/06 11:40:44;;;;;;;4.65;1.98;;;15.70;39.60;;;;;;5024834;28;20052;-71
2022/03/06 11:43:38;;;;;;;4.55;1.65;;;15.30;38.80;;;;;;5028031;28;20499;-72
2022/03/06 11:46:09;;;;;;;3.58;2.25;;;14.70;38.70;;;;;;5027466;28;20067;-70
2022/03/06 11:48:35;;;;;;;2.85;2.05;;;13.40;39.60;;;;;;5027228;28;20025;-69
2022/03/06 11:51:19;;;;;;;3.63;2.25;;;12.00;42.90;;;;;;5026672;28;20430;-69
2022/03/06 11:54:12;;;;;;;3.78;2.40;;;11.10;43.60;;;;;;5031630;28;20100;-70
2022/03/06 11:56:52;;;;;;;5.53;2.55;;;10.30;45.70;;;;;;5032254;28;20036;-69
2022/03/06 11:59:25;;;;;;;4.18;2.10;;;9.70;48.60;;;;;;5029832;28;20029;-69
2022/03/06 12:02:07;;;;;;;4.20;2.30;;;9.50;48.80;;;;;;5029678;28;20025;-69
2022/03/06 12:04:37;;;;;;;4.93;2.78;;;9.20;49.20;;;;;;5031530;28;20056;-68
2022/03/06 12:07:08;;;;;;;5.25;2.42;;;8.80;50.50;;;;;;5029300;28;20483;-68
2022/03/06 12:09:38;;;;;;;4.75;2.40;;;8.20;51.50;;;;;;5029680;28;20483;-68
2022/03/06 12:12:16;;;;;;;6.72;2.60;;;7.80;53.00;;;;;;5029011;28;20491;-69
2022/03/06 12:14:43;;;;;;;7.50;2.90;;;7.50;53.90;;;;;;5013064;28;20041;-69
2022/03/06 12:17:12;;;;;;;3.97;2.70;;;7.40;61.00;;;;;;5030188;28;20094;-69
2022/03/06 12:19:43;;;;;;;7.90;2.85;;;7.40;55.70;;;;;;5030466;28;20091;-68
2022/03/06 12:22:14;;;;;;;6.88;3.08;;;7.30;56.10;;;;;;5011161;28;20026;-68
2022/03/06 12:24:41;;;;;;;;;;;7.10;56.90;;;;;;5028247;28;20108;-69
2022/03/06 12:27:12;;;;;;;5.72;2.50;;;6.90;57.60;;;;;;5025629;28;19913;-69
2022/03/06 12:29:51;;;;;;;5.97;2.92;;;7.00;57.40;;;;;;5011576;28;20034;-69
2022/03/06 12:32:31;;;;;;;6.38;2.40;;;7.10;57.50;;;;;;5029327;28;20037;-70
2022/03/06 12:35:28;;;;;;;6.78;2.80;;;7.10;57.70;;;;;;5029203;28;20436;-69
2022/03/06 12:37:59;;;;;;;5.25;2.88;;;7.10;58.40;;;;;;5034983;28;20064;-70
2022/03/06 12:40:30;;;;;;;7.18;2.83;;;7.10;57.90;;;;;;5034041;28;20441;-70
2022/03/06 12:43:07;;;;;;;6.45;2.83;;;7.00;58.60;;;;;;5030993;28;20029;-70
2022/03/06 12:45:34;;;;;;;7.78;2.90;;;7.10;58.00;;;;;;5031104;28;20048;-70
2022/03/06 12:48:00;;;;;;;6.30;2.53;;;7.10;58.30;;;;;;5033888;28;20026;-70
2022/03/06 12:50:27;;;;;;;7.07;2.78;;;7.00;58.10;;;;;;5031625;28;20029;-70
2022/03/06 12:52:54;;;;;;;5.75;2.63;;;6.90;58.90;;;;;;5031041;28;20021;-70
2022/03/06 12:55:21;;;;;;;4.50;3.05;;;6.90;59.30;;;;;;5028712;28;20033;-70
2022/03/06 12:57:50;;;;;;;5.30;2.90;;;7.00;59.50;;;;;;5028558;28;20029;-70
2022/03/06 13:00:27;;;;;;;5.63;2.88;;;6.80;59.10;;;;;;5021133;28;20029;-70